Página principal
METAR-TAF:

METAR-TAF

Aeroportos :

Barrow, Alasca, Estados Unidos

latitude: 71-17-07N, longitude: 156-45-57W, altura: 13 m

Observação actual do tempo

O boletim foi feito há 31 minutos, às 17:53 UTC
Vento 6 kt de norte
Temperatura 2°C
Humidade 80%
Pressão 1024 hPa
Visibilidade: 16.1 km
Nuvens dispersasa uma altura de 700 ft

METAR: PABR 201753Z 36006KT 10SM SCT007 02/M01 A3024

Hora: 10:24 (18:24 UTC)

Previsão

O boletim foi feito há 54 minutos, às 17:30 UTC
Previsão válida de 20 às 18 UTC a 21 às 18 UTC
Vento 8 kt de nor-nordeste
Visibilidade: 10 km
Poucas nuvensa uma altura de 600 ft
A partir de 21 às 0800 UTC
Vento 8 kt de nordeste
Visibilidade: 10 km
Encobertoa uma altura de 400 ft
A partir de 21 às 1200 UTC
Vento 8 kt de nordeste
Visibilidade: 1.6 km
Encobertoa uma altura de 200 ft
neblina,

TAF: PABR 201730Z 2018/2118 02008KT P6SM FEW006 FM210800 04008KT P6SM OVC004 FM211200 04008KT 1SM BR OVC002

Observações e previsões do tempo de mais de 4000 aeroportos (mensagens METAR e TAF).

As estações disponíveis são os pontos amarelos e vermelhos sobre o mapa.

Mova o rato sobre o mapa para ver o nome da estação.

Depois clique no ponto para visualizar as observações e previsões meteorológicas.

Para alterar o mapa : clique nos botões verdes com uma cruz preta para aumentar o zoom; no botão verde com uma pitada de zoom; ou nas setas verdes para mapas adjacentes.


METAR-TAF: